• Join FlightAware (Why Join?)
  • Login
  • US Flag 
04:55AM EDT


 

Airport Tracker/Info


-or-


 

Live Flight TrackerFlight Track Log ✈ MAS2564 ✈ 30-Jun-2013 ✈ WMKK / KUL - WBGG / KCH

Flight Track Log - Related Links

Times and Time Zones

All times are in EDT time to prevent confusion due to time zone crossing. See the MAS2564 flight status page for this flight to view local times or setup timezone preferences in your user account.

Time Position Orientation Groundspeed Altitude Reporting Facility
EDT Latitude Longitude Course Direction KTS MPH feet Rate Location/Type
10:54PM 2.8320 101.6690 327° Northwest 234 269 2,700  Level FlightAware
10:54PM 2.8600 101.6500 326° Northwest 255 293 3,800 2,520 Climbing FlightAware
10:55PM 2.8950 101.6510 North 266 306 5,300 2,700 Climbing FlightAware
10:55PM 2.9040 101.6600 45° Northeast 276 318 5,700 2,700 Climbing FlightAware
10:55PM 2.9110 101.6760 66° East 285 328 6,300 2,880 Climbing FlightAware
10:56PM 2.9140 101.7210 86° East 293 337 7,800 2,760 Climbing FlightAware
10:56PM 2.9170 101.7590 85° East 293 337 9,200 2,280 Climbing FlightAware
10:57PM 2.9310 101.8150 76° East 306 352 10,600 1,680 Climbing FlightAware
10:58PM 2.9610 101.8850 67° East 358 412 11,600 1,560 Climbing FlightAware
10:58PM 2.9850 101.9400 66° East 368 423 12,800 1,260 Climbing FlightAware
10:59PM 3.0200 102.0210 67° East 381 438 13,600 720 Climbing FlightAware
11:00PM 3.0530 102.0960 66° East 384 442 14,000 840 Climbing FlightAware
11:01PM 3.0840 102.1690 67° East 372 428 14,900 2,100 Climbing FlightAware
11:01PM 3.1100 102.2240 65° Northeast 361 415 16,900 2,400 Climbing FlightAware
11:02PM 3.1460 102.2970 64° Northeast 389 448 18,200 1,680 Climbing FlightAware
11:03PM 3.1620 102.3730 78° East 412 474 19,400 1,920 Climbing FlightAware
11:04PM 3.1780 102.4480 78° East 416 479 20,900 2,040 Climbing FlightAware
11:04PM 3.1960 102.5320 78° East 420 483 22,400 1,860 Climbing FlightAware
11:05PM 3.2110 102.6050 78° East 425 489 23,500 1,200 Climbing FlightAware
11:06PM 3.2310 102.7010 78° East 427 491 24,300 1,380 Climbing FlightAware
11:07PM 3.2540 102.8100 78° East 443 510 25,900 1,500 Climbing FlightAware
11:07PM 3.2690 102.8790 78° East 450 518 26,500 420 Climbing FlightAware
11:08PM 3.2830 102.9460 78° East 450 518 26,500 1,320 Level FlightAware
11:09PM 3.3120 103.0850 78° East 460 529 28,500 1,680 Climbing FlightAware
11:09PM 3.3300 103.1690 78° East 453 521 29,000 300 Climbing FlightAware
11:10PM 3.3520 103.2730 78° East 446 513 29,000  Level FlightAware
11:11PM 3.3670 103.3450 78° East 446 513 29,000  Level FlightAware
11:12PM 3.3800 103.4080 78° East 446 513 29,000  Level FlightAware
11:13PM 3.3980 103.4910 78° East 446 513 29,000  Level FlightAware
11:13PM 3.4110 103.5510 78° East 446 513 29,000  Level FlightAware
11:14PM 3.4290 103.6350 78° East 446 513 29,000  Level FlightAware
11:15PM 3.4990 103.8390 71° East 451 519 29,000  Level FlightAware
11:16PM 3.5240 103.9210 73° East 452 520 29,000  Level FlightAware
11:16PM 3.5420 103.9820 74° East 452 520 29,000  Level FlightAware
11:17PM 3.5700 104.0870 75° East 455 524 29,000  Level FlightAware
11:18PM 3.5890 104.1540 74° East 455 524 29,000  Level FlightAware
11:19PM 3.6130 104.2370 74° East 455 524 29,000  Level FlightAware
11:19PM 3.6390 104.3390 76° East 457 526 29,000  Level FlightAware
11:20PM 3.6570 104.4080 75° East 457 526 29,000  Level FlightAware
11:21PM 3.6060 104.5220 114° Southeast 456 525 29,000  Level FlightAware
11:21PM 3.5730 104.6110 110° East 464 534 29,000  Level FlightAware
11:22PM 3.5520 104.6690 110° East 464 534 29,000  Level FlightAware
11:23PM 3.5100 104.7790 111° Southeast 466 536 29,000  Level FlightAware
11:23PM 3.4790 104.8620 111° Southeast 466 536 29,000  Level FlightAware
11:24PM 3.4500 104.9420 110° East 466 536 29,000  Level FlightAware
11:25PM 3.4200 105.0040 116° Southeast 466 536 29,000  Level FlightAware
11:25PM 3.3820 105.0780 117° Southeast 465 535 29,000  Level FlightAware
11:27PM 3.3190 105.2060 116° Southeast 464 534 29,000  Level FlightAware
11:27PM 3.2880 105.2690 116° Southeast 464 534 29,000  Level FlightAware
11:28PM 3.2330 105.3770 117° Southeast 460 529 29,000  Level FlightAware
11:29PM 3.1910 105.4610 117° Southeast 458 527 29,000  Level FlightAware
11:29PM 3.1580 105.5270 117° Southeast 458 527 29,000  Level FlightAware
11:30PM 3.1150 105.6120 117° Southeast 461 531 29,000  Level FlightAware
11:31PM 3.0730 105.6960 117° Southeast 463 533 29,000  Level FlightAware
11:32PM 3.0220 105.7990 116° Southeast 464 534 29,000  Level FlightAware
11:32PM 3.0040 105.8990 100° East 466 536 29,000  Level FlightAware
11:33PM 2.9890 105.9810 100° East 466 536 29,000  Level FlightAware
11:34PM 2.9710 106.0770 101° East 465 535 29,000  Level FlightAware
11:34PM 2.9570 106.1540 100° East 462 532 29,000  Level FlightAware
11:35PM 2.9440 106.2280 100° East 462 532 29,000  Level FlightAware
11:36PM 2.9250 106.3260 101° East 461 531 29,000  Level FlightAware
11:37PM 2.9010 106.4240 104° East 463 533 29,000  Level FlightAware
11:37PM 2.8590 106.5030 118° Southeast 463 533 29,000  Level FlightAware
11:38PM 2.8140 106.5850 119° Southeast 461 531 29,000  Level FlightAware
11:39PM 2.7710 106.6730 116° Southeast 459 528 29,000  Level FlightAware
11:40PM 2.7230 106.7700 116° Southeast 459 528 29,000  Level FlightAware
11:40PM 2.6660 106.8640 121° Southeast 463 533 29,000  Level FlightAware
11:41PM 2.6140 106.9520 121° Southeast 464 534 29,000  Level FlightAware
11:42PM 2.5690 107.0280 121° Southeast 466 536 29,000  Level FlightAware
11:43PM 2.5300 107.0960 120° Southeast 466 536 29,000  Level FlightAware
11:43PM 2.4840 107.1880 117° Southeast 466 536 29,000  Level FlightAware
11:44PM 2.4500 107.2570 116° Southeast 466 536 29,000  Level FlightAware
11:45PM 2.3950 107.3720 116° Southeast 466 536 29,000  Level FlightAware
11:46PM 2.3660 107.4340 115° Southeast 466 536 29,000  Level FlightAware
11:46PM 2.3080 107.5460 117° Southeast 466 536 29,000  Level FlightAware
11:47PM 2.2700 107.6250 116° Southeast 466 536 29,000  Level FlightAware
11:48PM 2.2410 107.6850 116° Southeast 466 536 29,000  Level FlightAware
11:49PM 2.2020 107.7640 116° Southeast 466 536 29,000  Level FlightAware
11:49PM 2.1730 107.8230 116° Southeast 466 536 29,000 -180 Level FlightAware
11:52PM 2.1261 107.9955 105° East  Level Estimated
11:53PM 2.1051 108.0727 105° East  Level Estimated
11:54PM 2.0841 108.1499 105° East  Level Estimated
11:55PM 2.0631 108.2272 105° East  Level Estimated
11:56PM 2.0421 108.3044 105° East  Level Estimated
11:57PM 2.0211 108.3816 105° East  Level Estimated
11:57PM 1.9030 108.8580 105° East 446 513 27,600  Level FlightAware
11:58PM 1.8920 108.9350 98° East 445 512 27,400 -1,080 Descending FlightAware
11:58PM 1.8800 109.0230 98° East 444 511 26,200 -1,440 Descending FlightAware
11:59PM 1.8680 109.1100 98° East 445 512 25,500 -1,020 Descending FlightAware
12:00AM 1.8570 109.1910 98° East 443 510 24,800 -1,020 Descending FlightAware
12:01AM 1.8440 109.2820 98° East 437 503 24,100 -1,020 Descending FlightAware
12:01AM 1.8340 109.3590 97° East 432 497 23,400 -1,020 Descending FlightAware
12:02AM 1.8210 109.4490 98° East 426 490 22,700 -1,020 Descending FlightAware
12:03AM 1.8110 109.5260 97° East 420 483 22,000 -1,560 Descending FlightAware
12:03AM 1.8000 109.6040 98° East 415 478 20,600 -2,280 Descending FlightAware
12:04AM 1.7850 109.6870 100° East 410 472 18,800 -2,340 Descending FlightAware
12:05AM 1.7720 109.7630 100° East 399 459 17,300 -2,280 Descending FlightAware
12:06AM 1.7570 109.8430 101° East 392 451 15,600 -2,340 Descending FlightAware
12:06AM 1.7430 109.9140 101° East 387 445 14,000 -2,580 Descending FlightAware
12:07AM 1.7290 109.9890 101° East 386 444 12,100 -2,520 Descending FlightAware
12:08AM 1.7150 110.0600 101° East 383 441 10,500 -2,340 Descending FlightAware
12:08AM 1.7060 110.1110 100° East 369 425 9,400 -2,580 Descending FlightAware
12:09AM 1.6980 110.1580 100° East 361 415 8,100 -2,880 Descending FlightAware
12:09AM 1.6920 110.1940 99° East 357 411 7,000 -2,940 Descending FlightAware
12:09AM 1.6870 110.2240 99° East 356 410 6,100 -2,400 Descending FlightAware
12:10AM 1.6770 110.2750 101° East 352 405 5,000 -1,500 Descending FlightAware
12:10AM 1.6710 110.3130 99° East 329 379 4,700 -480 Descending FlightAware
12:11AM 1.6650 110.3490 99° East 304 350 4,600 -120 Descending FlightAware
12:11AM 1.6580 110.3890 100° East 269 310 4,600 -180 Level FlightAware
12:11AM 1.6550 110.4080 99° East 259 298 4,500 -420 Descending FlightAware
12:12AM 1.6500 110.4390 99° East 244 281 4,300 -660 Descending FlightAware
12:12AM 1.6450 110.4710 99° East 236 272 3,900 -840 Descending FlightAware
12:13AM 1.6400 110.4880 106° East 232 267 3,700 -900 Descending FlightAware
12:13AM 1.6330 110.4970 128° Southeast 227 261 3,500 -780 Descending FlightAware
12:13AM 1.6110 110.5170 138° Southeast 218 251 3,200 -780 Descending FlightAware
12:13AM 1.6010 110.5220 153° Southeast 210 242 3,000 -900 Descending FlightAware
12:14AM 1.5930 110.5240 166° South 205 236 2,900 -660 Descending FlightAware
12:14AM 1.5760 110.5170 202° Southwest 194 223 2,700 -720 Descending FlightAware
12:14AM 1.5650 110.5100 212° Southwest 187 215 2,500 -300 Descending FlightAware
12:15AM 1.5380 110.4810 227° Southwest 177 204 2,300 -240 Descending FlightAware
12:18AM 1.4849 110.3465 248° West  Level Estimated
12:19AM 1.4849 110.3465 117° Southeast  Level Estimated
12:20AM 1.4849 110.3465 117° Southeast  Level Estimated
12:21AM 1.4849 110.3465 117° Southeast  Level Estimated
12:22AM 1.4849 110.3465 117° Southeast  Level Estimated
12:23AM 1.4849 110.3465 117° Southeast  Level Estimated
12:24AM 1.4849 110.3465 117° Southeast  Level Estimated
12:25AM 1.4849 110.3465 117° Southeast  Level Estimated
12:26AM 1.4849 110.3465 117° Southeast  Level Estimated
12:27AM 1.4849 110.3465 117° Southeast  Level Estimated
12:28AM 1.4849 110.3465 117° Southeast  Level Estimated
12:29AM 1.4849 110.3465 117° Southeast  Level Estimated
12:30AM 1.4849 110.3465 117° Southeast  Level Estimated
12:31AM 1.4849 110.3465 117° Southeast  Level Estimated